CheckWX is a tool to help pilots better visualize weather data.  It is not intended as a substitute for an official pre-flight weather briefing.

03:34:53 UTC

VTBD METAR
Don Mueang International Airport
Bangkok, Thailand
Current

35 mins ago

VTBD 250300Z 16004KT 050V220 9999 SCT020 BKN100 32/28 Q1011 NOSIG
Observed
May-25 @ 03:00 UTC
Wind
  • 160° at 4 KTS
Visibility
10,000+ meters
Flight Rules
VFR
Cloud Levels
  • Scattered at 2,000' AGL
  • Broken at 10,000' AGL
Temperature
32°C / 90°F
Dewpoint
28°C / 82°F
Humidity
79%
Altimeter
29.85" Hg
Pressure
1010.92 hPa
Previous

1 hour ago

VTBD 250230Z 17003KT 9999 FEW030 31/27 Q1011 NOSIG
Observed
May-25 @ 02:30 UTC
Wind
  • 170° at 3 KTS
Visibility
10,000+ meters
Flight Rules
VFR
Cloud Levels
  • Few at 3,000' AGL
Temperature
31°C / 88°F
Dewpoint
27°C / 81°F
Humidity
79%
Altimeter
29.85" Hg
Pressure
1010.92 hPa
Previous

2 hours ago

VTBD 250200Z 15004KT 120V190 9999 FEW030 30/27 Q1011 NOSIG
Observed
May-25 @ 02:00 UTC
Wind
  • 150° at 4 KTS
Visibility
10,000+ meters
Flight Rules
VFR
Cloud Levels
  • Few at 3,000' AGL
Temperature
30°C / 86°F
Dewpoint
27°C / 81°F
Humidity
84%
Altimeter
29.85" Hg
Pressure
1010.92 hPa